EDT,Max TemperatureF,Mean TemperatureF,Min TemperatureF,Max Dew PointF,MeanDew PointF,Min DewpointF,Max Humidity, Mean Humidity, Min Humidity, Max Sea Level PressureIn, Mean Sea Level PressureIn, Min Sea Level PressureIn, Max VisibilityMiles, Mean VisibilityMiles, Min VisibilityMiles, Max Wind SpeedMPH, Mean Wind SpeedMPH, Max Gust SpeedMPH,PrecipitationIn, CloudCover, Events, WindDirDegrees
2013-9-1,86,76,65,70,67,64,93,74,55,29.90,29.87,29.81,10,10,7,13,4,16,T,2,Rain,307
2013-9-2,88,78,68,68,66,63,90,68,45,29.91,29.85,29.80,10,10,10,14,6,,0.00,2,,280
2013-9-3,88,78,67,67,62,56,84,62,40,30.01,29.89,29.82,10,10,10,17,6,22,0.00,1,,317
2013-9-4,83,70,56,62,57,52,87,62,37,30.13,30.08,30.01,10,10,10,9,3,17,0.00,0,,308
2013-9-5,87,74,60,59,56,52,90,61,32,30.16,30.12,30.07,10,10,10,20,6,24,0.00,0,,313
2013-9-6,78,68,58,59,55,51,90,65,40,30.25,30.18,30.14,10,10,10,12,4,15,0.00,3,,90
2013-9-7,82,68,54,64,58,52,93,71,48,30.17,30.09,30.00,10,10,10,14,3,17,0.00,0,,142
2013-9-8,88,74,60,67,61,57,90,67,43,30.03,29.98,29.93,10,10,9,13,3,18,0.00,2,,334
2013-9-9,79,72,64,66,64,62,93,78,62,30.20,30.15,30.04,10,9,5,12,3,15,0.00,4,,138
2013-9-10,89,77,65,71,67,64,100,75,50,30.25,30.20,30.16,10,9,4,13,4,17,T,2,,229
2013-9-11,90,79,67,69,67,66,93,70,47,30.22,30.15,30.08,10,9,5,13,4,17,0.00,2,Thunderstorm,270
2013-9-12,91,81,71,68,65,60,84,61,38,30.06,29.95,29.83,10,10,9,18,7,24,T,2,Rain,292
2013-9-13,80,69,57,62,50,42,81,55,28,29.98,29.86,29.80,10,10,10,26,10,33,0.00,2,,304
2013-9-14,75,62,49,51,46,43,86,60,33,30.18,30.08,29.98,10,10,10,13,2,15,0.00,0,,62
2013-9-15,77,63,48,58,52,45,93,71,49,30.27,30.20,30.13,10,10,10,13,3,16,0.00,0,,158
2013-9-16,75,66,56,59,56,50,90,70,49,30.26,30.16,30.12,10,10,10,16,5,21,T,3,,321
2013-9-17,72,61,49,52,49,46,93,69,44,30.40,30.33,30.27,10,10,10,13,4,15,0.00,3,,160
2013-9-18,69,59,48,54,50,45,89,72,55,30.36,30.29,30.22,10,10,10,12,4,16,0.00,4,,128
2013-9-19,74,68,61,63,58,54,87,77,66,30.22,30.16,30.10,10,10,10,9,3,10,0.00,8,,132
2013-9-20,68,65,62,65,63,61,100,91,81,30.11,30.07,29.98,10,7,1,10,2,12,0.64,8,Rain,148
2013-9-21,68,62,56,66,63,56,100,94,87,29.99,29.85,29.73,10,4,0,16,7,21,0.47,7,Fog-Rain,136
2013-9-22,75,63,50,56,50,45,100,71,41,29.99,29.87,29.80,10,10,10,14,4,16,0.00,2,,348
2013-9-23,71,62,53,55,51,46,93,75,56,30.11,30.06,29.99,10,10,10,12,4,16,0.00,3,,87
2013-9-24,76,66,55,59,54,48,93,72,50,30.14,30.06,29.96,10,10,9,10,3,13,0.00,4,,136
2013-9-25,68,62,55,61,57,54,100,84,68,30.00,29.96,29.92,10,7,0,9,1,,0.02,6,Rain,149
2013-9-26,76,67,58,61,56,51,100,72,43,30.10,30.00,29.94,10,8,3,10,2,,T,5,,47
2013-9-27,74,62,49,55,52,48,96,71,46,30.24,30.17,30.10,10,10,10,13,3,,0.00,3,,130
2013-9-28,69,62,55,55,52,50,86,72,58,30.32,30.26,30.23,10,10,10,13,3,14,0.00,7,,123
2013-9-29,74,61,48,53,50,48,100,71,41,30.23,30.15,30.08,10,10,10,12,2,14,0.00,3,,95
2013-9-30,78,66,53,58,53,51,93,68,43,30.12,30.07,30.01,10,10,10,9,2,12,0.00,4,,260